createdAt,value
2018-09-03T00:00:59.170Z,102208.05
2018-09-03T00:03:27.834Z,102207.77
2018-09-03T00:05:56.377Z,102211.80
2018-09-03T00:08:24.964Z,102210.14
2018-09-03T00:10:53.434Z,102212.86
2018-09-03T00:13:22.243Z,102164.06
2018-09-03T00:15:50.732Z,102209.16
2018-09-03T00:18:19.468Z,102211.42
2018-09-03T00:20:47.930Z,102214.19
2018-09-03T00:23:16.456Z,102215.09
2018-09-03T00:25:44.936Z,102197.62
2018-09-03T00:28:13.629Z,102217.96
2018-09-03T00:30:42.310Z,102211.00
2018-09-03T00:33:16.114Z,102215.97
2018-09-03T00:35:49.905Z,102215.53
2018-09-03T00:38:23.638Z,102200.02
2018-09-03T00:40:57.502Z,102214.86
2018-09-03T00:43:31.322Z,102222.81
2018-09-03T00:46:05.070Z,102209.95
2018-09-03T00:48:33.544Z,102213.31
2018-09-03T00:51:02.222Z,102207.02
2018-09-03T00:53:30.745Z,102205.81
2018-09-03T00:55:59.415Z,102217.13
2018-09-03T00:58:27.954Z,102215.80
2018-09-03T01:00:56.537Z,102211.88
2018-09-03T01:03:25.218Z,102210.13
2018-09-03T01:05:53.775Z,102208.52
2018-09-03T01:08:22.550Z,102202.39
2018-09-03T01:10:51.135Z,102202.50
2018-09-03T01:13:20.743Z,102199.96
2018-09-03T01:15:49.195Z,102206.75
2018-09-03T01:18:17.799Z,102203.77
2018-09-03T01:20:48.210Z,102206.53
2018-09-03T01:23:16.862Z,102205.70
2018-09-03T01:25:45.397Z,102205.84
2018-09-03T01:28:13.904Z,102193.50
2018-09-03T01:30:42.469Z,102195.36
2018-09-03T01:33:11.041Z,102198.45
2018-09-03T01:35:39.702Z,102195.86
2018-09-03T01:38:08.222Z,102194.64
2018-09-03T01:40:36.737Z,102145.00
2018-09-03T01:43:05.282Z,102182.44
2018-09-03T01:45:33.793Z,102192.21
2018-09-03T01:48:02.741Z,102187.41
2018-09-03T01:50:31.332Z,102183.55
2018-09-03T01:53:00.122Z,102179.29
2018-09-03T01:55:28.614Z,102179.79
2018-09-03T01:57:57.486Z,102175.13
2018-09-03T02:00:25.966Z,102175.92
2018-09-03T02:02:54.617Z,102175.13
2018-09-03T02:05:23.139Z,102173.92
2018-09-03T02:07:51.618Z,102170.05
2018-09-03T02:10:20.210Z,102179.82
2018-09-03T02:12:48.694Z,102168.52
2018-09-03T02:15:17.409Z,102143.11
2018-09-03T02:17:45.932Z,102173.41
2018-09-03T02:20:14.555Z,102172.19
2018-09-03T02:22:43.210Z,102166.50
2018-09-03T02:25:11.801Z,102163.85
2018-09-03T02:27:40.422Z,102152.72
2018-09-03T02:30:08.979Z,102168.83
2018-09-03T02:32:37.747Z,102066.89
2018-09-03T02:35:06.387Z,102160.50
2018-09-03T02:37:35.050Z,102051.18
2018-09-03T02:40:03.636Z,102157.52
2018-09-03T02:42:32.475Z,102154.05
2018-09-03T02:45:00.970Z,102152.82
2018-09-03T02:47:29.493Z,102145.52
2018-09-03T02:49:57.982Z,102148.45
2018-09-03T02:52:26.449Z,102149.88
2018-09-03T02:54:55.503Z,102153.45
2018-09-03T02:57:24.000Z,102151.31
2018-09-03T02:59:52.671Z,102146.30
2018-09-03T03:02:21.193Z,102144.56
2018-09-03T03:04:49.722Z,102142.92
2018-09-03T03:07:18.250Z,102144.19
2018-09-03T03:09:46.739Z,102144.08
2018-09-03T03:12:19.606Z,102132.38
2018-09-03T03:14:48.088Z,102133.81
2018-09-03T03:17:16.682Z,102145.01
2018-09-03T03:19:45.178Z,102144.78
2018-09-03T03:22:13.873Z,102138.91
2018-09-03T03:24:42.349Z,102133.18
2018-09-03T03:27:11.110Z,102094.55
2018-09-03T03:29:39.570Z,102124.19
2018-09-03T03:32:08.070Z,102130.94
2018-09-03T03:34:36.606Z,102125.86
2018-09-03T03:37:05.187Z,102127.84
2018-09-03T03:39:33.909Z,102118.25
2018-09-03T03:42:02.572Z,102123.27
2018-09-03T03:44:31.402Z,102115.44
2018-09-03T03:47:00.048Z,102103.23
2018-09-03T03:49:28.774Z,102109.63
2018-09-03T03:51:57.250Z,102110.51
2018-09-03T03:54:25.943Z,102116.14
2018-09-03T03:56:54.423Z,102115.27
2018-09-03T03:59:23.032Z,102116.65
2018-09-03T04:01:51.746Z,102115.86
2018-09-03T04:04:20.210Z,102116.65
2018-09-03T04:06:48.821Z,102113.89
2018-09-03T04:09:17.282Z,102114.36
2018-09-03T04:11:45.977Z,102117.17
2018-09-03T04:14:14.441Z,102119.14
2018-09-03T04:16:43.061Z,102117.52
2018-09-03T04:19:11.714Z,102123.61
2018-09-03T04:21:40.219Z,102123.38
2018-09-03T04:24:09.074Z,102110.78
2018-09-03T04:26:37.678Z,102122.75
2018-09-03T04:29:06.366Z,102120.60
2018-09-03T04:31:34.945Z,102115.91
2018-09-03T04:34:03.484Z,102119.52
2018-09-03T04:36:32.187Z,102119.62
2018-09-03T04:39:00.687Z,102118.03
2018-09-03T04:41:29.246Z,102126.50
2018-09-03T04:43:57.786Z,102127.94
2018-09-03T04:46:26.502Z,102129.80
2018-09-03T04:48:55.039Z,102126.22
2018-09-03T04:51:23.678Z,102135.14
2018-09-03T04:53:52.377Z,102132.20
2018-09-03T04:56:20.938Z,102127.11
2018-09-03T04:58:49.498Z,102136.16
2018-09-03T05:01:18.257Z,102134.71
2018-09-03T05:03:46.970Z,102131.94
2018-09-03T05:06:15.520Z,102137.06
2018-09-03T05:08:44.419Z,102128.66
2018-09-03T05:11:12.950Z,102129.98
2018-09-03T05:13:41.516Z,102120.21
2018-09-03T05:16:10.155Z,102117.35
2018-09-03T05:18:38.737Z,102123.62
2018-09-03T05:21:07.366Z,102118.19
2018-09-03T05:23:35.967Z,102125.97
2018-09-03T05:26:04.815Z,102127.50
2018-09-03T05:28:33.376Z,102129.88
2018-09-03T05:31:01.967Z,102139.41
2018-09-03T05:33:30.630Z,102132.42
2018-09-03T05:35:59.191Z,102126.34
2018-09-03T05:38:27.891Z,102133.05
2018-09-03T05:40:56.367Z,102136.39
2018-09-03T05:43:25.286Z,102130.89
2018-09-03T05:45:53.794Z,102124.31
2018-09-03T05:48:27.782Z,102127.91
2018-09-03T05:50:56.373Z,102130.55
2018-09-03T05:53:24.895Z,102134.27
2018-09-03T05:55:53.548Z,102133.03
2018-09-03T05:58:22.250Z,102092.16
2018-09-03T06:00:50.862Z,102138.76
2018-09-03T06:03:19.568Z,102133.97
2018-09-03T06:05:48.365Z,102131.84
2018-09-03T06:08:17.786Z,102137.55
2018-09-03T06:10:46.371Z,102132.75
2018-09-03T06:13:14.994Z,102130.20
2018-09-03T06:15:43.726Z,102131.09
2018-09-03T06:18:12.846Z,102140.92
2018-09-03T06:20:41.812Z,102140.63
2018-09-03T06:23:17.253Z,102142.06
2018-09-03T06:25:45.738Z,102140.44
2018-09-03T06:28:14.478Z,102148.52
2018-09-03T06:30:43.081Z,102139.70
2018-09-03T06:33:11.776Z,102143.78
2018-09-03T06:35:40.300Z,102130.17
2018-09-03T06:38:09.338Z,102128.77
2018-09-03T06:40:38.022Z,102136.30
2018-09-03T06:43:06.853Z,102131.46
2018-09-03T06:45:35.389Z,102130.88
2018-09-03T06:48:04.311Z,102122.00
2018-09-03T06:50:34.034Z,102126.86
2018-09-03T06:53:02.699Z,102126.46
2018-09-03T06:55:31.646Z,102121.23
2018-09-03T06:58:00.280Z,102120.91
2018-09-03T07:00:28.954Z,102115.05
2018-09-03T07:02:57.478Z,102119.06
2018-09-03T07:05:26.082Z,102117.78
2018-09-03T07:07:54.594Z,102123.41
2018-09-03T07:10:23.226Z,102115.83
2018-09-03T07:12:51.926Z,102082.23
2018-09-03T07:15:20.462Z,102126.88
2018-09-03T07:17:49.210Z,102120.48
2018-09-03T07:20:17.778Z,102116.34
2018-09-03T07:22:46.343Z,102116.78
2018-09-03T07:25:14.806Z,102116.81
2018-09-03T07:27:43.548Z,102117.80
2018-09-03T07:30:12.247Z,102109.34
2018-09-03T07:32:40.850Z,102115.17
2018-09-03T07:35:09.544Z,102114.56
2018-09-03T07:37:38.031Z,102109.17
2018-09-03T07:40:07.375Z,102107.77
2018-09-03T07:42:35.861Z,102108.66
2018-09-03T07:45:04.663Z,102104.13
2018-09-03T07:47:33.319Z,102105.11
2018-09-03T07:50:01.922Z,102099.20
2018-09-03T07:52:30.423Z,102094.64
2018-09-03T07:54:58.914Z,102097.78
2018-09-03T07:57:27.944Z,102093.30
2018-09-03T07:59:56.539Z,102091.77
2018-09-03T08:02:25.180Z,102091.97
2018-09-03T08:04:53.670Z,102094.45
2018-09-03T08:07:22.268Z,102092.72
2018-09-03T08:09:50.958Z,102058.71
2018-09-03T08:12:19.442Z,102093.70
2018-09-03T08:14:48.114Z,102057.74
2018-09-03T08:17:16.576Z,102088.14
2018-09-03T08:19:45.348Z,102079.71
2018-09-03T08:22:13.822Z,102074.13
2018-09-03T08:24:42.412Z,102084.81
2018-09-03T08:27:10.910Z,102076.94
2018-09-03T08:29:39.506Z,102077.30
2018-09-03T08:32:08.334Z,102074.42
2018-09-03T08:34:36.856Z,102076.70
2018-09-03T08:37:05.763Z,102071.30
2018-09-03T08:39:34.223Z,102069.55
2018-09-03T08:42:02.786Z,102069.87
2018-09-03T08:44:31.258Z,102049.39
2018-09-03T08:46:59.820Z,102074.98
2018-09-03T08:49:28.494Z,102069.78
2018-09-03T08:51:57.110Z,102068.58
2018-09-03T08:54:25.899Z,102069.06
2018-09-03T08:56:54.549Z,102060.53
2018-09-03T08:59:23.719Z,102058.47
2018-09-03T09:01:52.310Z,102057.82
2018-09-03T09:04:21.024Z,102054.88
2018-09-03T09:06:49.602Z,102055.49
2018-09-03T09:09:18.186Z,102057.09
2018-09-03T09:11:46.976Z,102049.51
2018-09-03T09:14:15.407Z,102050.41
2018-09-03T09:16:44.198Z,102043.20
2018-09-03T09:19:12.658Z,102035.15
2018-09-03T09:21:41.155Z,102036.85
2018-09-03T09:24:09.682Z,102034.73
2018-09-03T09:26:38.145Z,102032.52
2018-09-03T09:29:06.829Z,102005.39
2018-09-03T09:31:35.290Z,102020.87
2018-09-03T09:34:04.151Z,102014.59
2018-09-03T09:36:32.634Z,102013.37
2018-09-03T09:39:01.235Z,102013.20
2018-09-03T09:41:33.226Z,102001.23
2018-09-03T09:44:03.130Z,102002.16
2018-09-03T09:46:31.613Z,101997.77
2018-09-03T09:49:00.312Z,102004.13
2018-09-03T09:51:29.206Z,101997.53
2018-09-03T09:53:58.498Z,102004.02
2018-09-03T09:56:27.066Z,102000.47
2018-09-03T09:58:55.714Z,102003.20
2018-09-03T10:01:29.422Z,101995.50
2018-09-03T10:03:58.130Z,101988.41
2018-09-03T10:06:26.628Z,101983.03
2018-09-03T10:08:55.468Z,101978.89
2018-09-03T10:11:24.023Z,101978.80
2018-09-03T10:13:52.677Z,101979.67
2018-09-03T10:16:21.266Z,101976.47
2018-09-03T10:18:49.788Z,101971.48
2018-09-03T10:21:18.568Z,101968.30
2018-09-03T10:23:47.146Z,101964.15
2018-09-03T10:26:16.055Z,101904.81
2018-09-03T10:28:44.654Z,101967.69
2018-09-03T10:31:13.307Z,101974.08
2018-09-03T10:33:42.059Z,101961.72
2018-09-03T10:36:10.566Z,101956.11
2018-09-03T10:38:39.086Z,101913.62
2018-09-03T10:41:07.631Z,101947.41
2018-09-03T10:43:36.518Z,101936.27
2018-09-03T10:46:05.143Z,101941.04
2018-09-03T10:48:33.999Z,101894.80
2018-09-03T10:51:02.554Z,101935.77
2018-09-03T10:53:31.182Z,101889.05
2018-09-03T10:55:59.669Z,101931.97
2018-09-03T10:58:28.150Z,101927.78
2018-09-03T11:00:56.794Z,101923.97
2018-09-03T11:03:25.274Z,101915.25
2018-09-03T11:05:53.959Z,101824.11
2018-09-03T11:08:22.458Z,101915.74
2018-09-03T11:10:51.126Z,101917.09
2018-09-03T11:13:19.690Z,101912.77
2018-09-03T11:15:48.182Z,101912.73
2018-09-03T11:18:16.843Z,101918.13
2018-09-03T11:20:45.326Z,101912.00
2018-09-03T11:23:14.193Z,101906.48
2018-09-03T11:25:43.250Z,101900.12
2018-09-03T11:28:12.625Z,101900.45
2018-09-03T11:30:41.200Z,101905.22
2018-09-03T11:33:09.774Z,101896.40
2018-09-03T11:35:38.261Z,101888.44
2018-09-03T11:38:06.837Z,101886.36
2018-09-03T11:40:35.545Z,101882.39
2018-09-03T11:43:04.126Z,101882.81
2018-09-03T11:45:33.007Z,101809.81
2018-09-03T11:48:01.471Z,101879.66
2018-09-03T11:50:30.011Z,101873.09
2018-09-03T11:52:58.538Z,101881.34
2018-09-03T11:55:27.045Z,101827.66
2018-09-03T11:57:55.682Z,101874.51
2018-09-03T12:00:29.908Z,101876.75
2018-09-03T12:02:59.162Z,101868.98
2018-09-03T12:05:28.642Z,101869.85
2018-09-03T12:07:57.191Z,101876.20
2018-09-03T12:10:26.265Z,101866.66
2018-09-03T12:12:54.798Z,101864.44
2018-09-03T12:15:28.805Z,101865.34
2018-09-03T12:17:57.372Z,101852.31
2018-09-03T12:20:26.414Z,101849.70
2018-09-03T12:22:54.951Z,101848.55
2018-09-03T12:25:23.950Z,101846.92
2018-09-03T12:27:52.415Z,101842.88
2018-09-03T12:30:21.294Z,101841.31
2018-09-03T12:32:49.837Z,101846.58
2018-09-03T12:35:18.637Z,101845.84
2018-09-03T12:37:47.206Z,101852.94
2018-09-03T12:40:15.744Z,101851.16
2018-09-03T12:42:44.250Z,101849.81
2018-09-03T12:45:12.858Z,101837.95
2018-09-03T12:47:41.611Z,101840.23
2018-09-03T12:50:10.255Z,101846.89
2018-09-03T12:52:38.863Z,101837.80
2018-09-03T12:55:07.695Z,101831.44
2018-09-03T12:57:36.517Z,101826.18
2018-09-03T13:00:05.707Z,101812.98
2018-09-03T13:02:39.418Z,101822.43
2018-09-03T13:05:02.245Z,101743.70
2018-09-03T13:07:30.742Z,101816.81
2018-09-03T13:09:59.665Z,101826.11
2018-09-03T13:12:28.140Z,101814.50
2018-09-03T13:14:56.953Z,101817.39
2018-09-03T13:17:25.513Z,101824.40
2018-09-03T13:19:54.061Z,101820.17
2018-09-03T13:22:22.624Z,101809.92
2018-09-03T13:24:51.166Z,101811.27
2018-09-03T13:27:20.094Z,101804.27
2018-09-03T13:29:48.546Z,101808.96
2018-09-03T13:32:17.247Z,101802.03
2018-09-03T13:34:45.747Z,101801.77
2018-09-03T13:37:14.360Z,101792.68
2018-09-03T13:39:42.885Z,101792.59
2018-09-03T13:42:11.493Z,101792.87
2018-09-03T13:44:40.221Z,101702.77
2018-09-03T13:47:08.939Z,101783.24
2018-09-03T13:49:37.712Z,101787.28
2018-09-03T13:52:06.438Z,101775.64
2018-09-03T13:54:35.074Z,101775.50
2018-09-03T13:57:03.574Z,101765.42
2018-09-03T13:59:32.038Z,101774.08
2018-09-03T14:02:01.238Z,101755.47
2018-09-03T14:04:29.712Z,101774.08
2018-09-03T14:06:58.693Z,101763.75
2018-09-03T14:09:27.247Z,101762.48
2018-09-03T14:11:56.127Z,101756.90
2018-09-03T14:14:24.674Z,101765.91
2018-09-03T14:16:53.487Z,101766.61
2018-09-03T14:19:22.070Z,101753.97
2018-09-03T14:21:50.566Z,101763.40
2018-09-03T14:24:19.654Z,101768.87
2018-09-03T14:26:48.476Z,101763.94
2018-09-03T14:29:17.505Z,101775.68
2018-09-03T14:31:45.990Z,101768.24
2018-09-03T14:34:14.476Z,101767.77
2018-09-03T14:36:43.036Z,101771.35
2018-09-03T14:39:12.398Z,101768.97
2018-09-03T14:41:41.036Z,101767.08
2018-09-03T14:44:10.158Z,101766.08
2018-09-03T14:46:38.900Z,101755.69
2018-09-03T14:49:07.720Z,101756.34
2018-09-03T14:51:36.879Z,101747.39
2018-09-03T14:54:05.434Z,101744.44
2018-09-03T14:56:34.410Z,101744.80
2018-09-03T14:59:02.906Z,101748.09
2018-09-03T15:01:31.751Z,101743.80
2018-09-03T15:04:00.360Z,101748.09
2018-09-03T15:06:28.870Z,101747.62
2018-09-03T15:08:57.358Z,101737.93
2018-09-03T15:11:25.848Z,101735.15
2018-09-03T15:13:59.252Z,101737.71
2018-09-03T15:16:30.926Z,101738.10
2018-09-03T15:19:00.458Z,101737.02
2018-09-03T15:21:29.193Z,101694.23
2018-09-03T15:23:57.783Z,101740.78
2018-09-03T15:26:26.890Z,101737.02
2018-09-03T15:28:55.491Z,101737.73
2018-09-03T15:31:24.247Z,101736.95
2018-09-03T15:33:53.036Z,101738.02
2018-09-03T15:36:21.684Z,101734.33
2018-09-03T15:38:50.246Z,101734.93
2018-09-03T15:41:18.798Z,101743.17
2018-09-03T15:43:47.842Z,101739.66
2018-09-03T15:46:16.316Z,101737.70
2018-09-03T15:48:46.050Z,101734.66
2018-09-03T15:51:14.649Z,101735.30
2018-09-03T15:53:43.482Z,101738.47
2018-09-03T15:56:12.047Z,101738.23
2018-09-03T15:58:40.598Z,101737.53
2018-09-03T16:01:09.298Z,101724.71
2018-09-03T16:03:37.880Z,101733.47
2018-09-03T16:06:06.711Z,101702.26
2018-09-03T16:08:35.242Z,101732.86
2018-09-03T16:11:03.915Z,101733.16
2018-09-03T16:13:32.578Z,101735.47
2018-09-03T16:16:01.133Z,101740.02
2018-09-03T16:18:29.779Z,101730.21
2018-09-03T16:20:58.324Z,101729.98
2018-09-03T16:23:28.129Z,101692.65
2018-09-03T16:25:56.642Z,101726.34
2018-09-03T16:28:25.627Z,101671.03
2018-09-03T16:30:54.090Z,101727.34
2018-09-03T16:33:22.921Z,101726.60
2018-09-03T16:35:51.532Z,101721.97
2018-09-03T16:38:20.002Z,101714.16
2018-09-03T16:40:48.526Z,101715.25
2018-09-03T16:43:17.010Z,101715.86
2018-09-03T16:45:45.934Z,101709.28
2018-09-03T16:48:14.602Z,101715.05
2018-09-03T16:50:43.666Z,101703.45
2018-09-03T16:53:12.231Z,101699.88
2018-09-03T16:55:41.588Z,101702.94
2018-09-03T16:58:10.234Z,101703.19
2018-09-03T17:00:38.789Z,101704.52
2018-09-03T17:03:07.444Z,101702.43
2018-09-03T17:05:36.170Z,101699.88
2018-09-03T17:08:05.063Z,101611.28
2018-09-03T17:10:33.450Z,101700.73
2018-09-03T17:13:02.278Z,101704.72
2018-09-03T17:15:30.914Z,101699.47
2018-09-03T17:17:59.612Z,101706.30
2018-09-03T17:20:29.306Z,101706.66
2018-09-03T17:22:57.894Z,101698.30
2018-09-03T17:25:26.433Z,101701.33
2018-09-03T17:27:54.930Z,101700.09
2018-09-03T17:30:23.595Z,101700.56
2018-09-03T17:32:52.094Z,101696.02
2018-09-03T17:35:20.708Z,101694.08
2018-09-03T17:37:49.293Z,101698.06
2018-09-03T17:40:18.062Z,101693.27
2018-09-03T17:42:46.717Z,101696.56
2018-09-03T17:45:15.195Z,101697.38
2018-09-03T17:47:45.323Z,101699.17
2018-09-03T17:50:13.902Z,101692.69
2018-09-03T17:52:42.381Z,101692.62
2018-09-03T17:55:11.681Z,101693.66
2018-09-03T17:57:40.287Z,101690.68
2018-09-03T18:00:08.834Z,101685.99
2018-09-03T18:02:37.369Z,101688.40
2018-09-03T18:05:06.186Z,101686.38
2018-09-03T18:07:34.718Z,101683.61
2018-09-03T18:10:03.321Z,101690.59
2018-09-03T18:12:31.902Z,101683.22
2018-09-03T18:15:00.898Z,101692.88
2018-09-03T18:17:29.410Z,101687.19
2018-09-03T18:19:58.058Z,101688.67
2018-09-03T18:22:26.686Z,101689.41
2018-09-03T18:24:55.161Z,101690.41
2018-09-03T18:27:23.853Z,101689.13
2018-09-03T18:29:52.333Z,101691.86
2018-09-03T18:32:24.724Z,101686.94
2018-09-03T18:34:53.272Z,101691.57
2018-09-03T18:37:22.605Z,101688.08
2018-09-03T18:39:51.211Z,101680.98
2018-09-03T18:42:20.019Z,101623.30
2018-09-03T18:44:48.670Z,101694.75
2018-09-03T18:47:17.660Z,101688.48
2018-09-03T18:49:46.151Z,101689.35
2018-09-03T18:52:15.047Z,101690.59
2018-09-03T18:54:43.631Z,101684.31
2018-09-03T18:57:12.187Z,101688.25
2018-09-03T18:59:40.754Z,101685.98
2018-09-03T19:02:09.238Z,101690.39
2018-09-03T19:04:37.978Z,101682.88
2018-09-03T19:07:06.629Z,101681.56
2018-09-03T19:09:35.399Z,101681.86
2018-09-03T19:12:03.934Z,101679.09
2018-09-03T19:14:33.643Z,101673.77
2018-09-03T19:17:02.206Z,101680.83
2018-09-03T19:19:31.038Z,101678.64
2018-09-03T19:21:59.955Z,101681.61
2018-09-03T19:24:30.292Z,101692.20
2018-09-03T19:26:58.887Z,101686.69
2018-09-03T19:29:27.542Z,101684.67
2018-09-03T19:31:56.348Z,101681.42
2018-09-03T19:34:24.950Z,101688.28
2018-09-03T19:36:54.263Z,101681.02
2018-09-03T19:39:22.913Z,101682.23
2018-09-03T19:41:52.743Z,101675.88
2018-09-03T19:44:21.559Z,101681.97
2018-09-03T19:46:50.358Z,101675.20
2018-09-03T19:49:18.918Z,101673.19
2018-09-03T19:51:47.665Z,101673.10
2018-09-03T19:54:16.358Z,101676.05
2018-09-03T19:56:45.086Z,101672.01
2018-09-03T19:59:13.746Z,101669.53
2018-09-03T20:01:42.359Z,101674.30
2018-09-03T20:04:11.117Z,101595.94
2018-09-03T20:06:39.782Z,101672.19
2018-09-03T20:09:08.485Z,101667.59
2018-09-03T20:11:37.971Z,101670.94
2018-09-03T20:14:07.190Z,101670.25
2018-09-03T20:16:35.994Z,101667.48
2018-09-03T20:19:04.610Z,101669.92
2018-09-03T20:21:33.138Z,101667.44
2018-09-03T20:24:01.705Z,101666.00
2018-09-03T20:26:30.441Z,101667.13
2018-09-03T20:28:58.910Z,101669.02
2018-09-03T20:31:28.376Z,101640.55
2018-09-03T20:33:56.987Z,101663.09
2018-09-03T20:36:26.907Z,101663.49
2018-09-03T20:38:55.408Z,101662.71
2018-09-03T20:41:24.062Z,101659.30
2018-09-03T20:43:52.538Z,101650.16
2018-09-03T20:46:21.055Z,101652.00
2018-09-03T20:48:49.914Z,101650.39
2018-09-03T20:51:18.574Z,101656.73
2018-09-03T20:53:47.190Z,101651.98
2018-09-03T20:56:15.847Z,101653.49
2018-09-03T20:58:44.583Z,101649.95
2018-09-03T21:01:13.158Z,101644.34
2018-09-03T21:03:41.746Z,101650.22
2018-09-03T21:06:10.353Z,101642.32
2018-09-03T21:08:38.870Z,101637.09
2018-09-03T21:11:07.749Z,101638.97
2018-09-03T21:13:36.323Z,101639.92
2018-09-03T21:16:05.266Z,101641.05
2018-09-03T21:18:33.826Z,101640.27
2018-09-03T21:21:02.318Z,101644.81
2018-09-03T21:23:30.970Z,101646.23
2018-09-03T21:25:59.655Z,101644.16
2018-09-03T21:28:28.337Z,101640.62
2018-09-03T21:30:56.816Z,101640.80
2018-09-03T21:33:25.426Z,101641.34
2018-09-03T21:35:53.918Z,101641.14
2018-09-03T21:38:22.513Z,101638.56
2018-09-03T21:40:51.090Z,101630.63
2018-09-03T21:43:19.738Z,101640.73
2018-09-03T21:45:48.266Z,101633.67
2018-09-03T21:48:16.746Z,101637.75
2018-09-03T21:50:45.567Z,101633.55
2018-09-03T21:53:14.077Z,101630.19
2018-09-03T21:55:43.103Z,101637.80
2018-09-03T21:58:11.848Z,101639.30
2018-09-03T22:00:40.553Z,101640.63
2018-09-03T22:03:09.014Z,101635.31
2018-09-03T22:05:37.542Z,101629.20
2018-09-03T22:08:06.149Z,101631.95
2018-09-03T22:10:34.694Z,101632.03
2018-09-03T22:13:03.448Z,101623.55
2018-09-03T22:15:31.930Z,101633.53
2018-09-03T22:18:00.638Z,101634.65
2018-09-03T22:20:29.135Z,101633.41
2018-09-03T22:22:57.707Z,101640.69
2018-09-03T22:25:26.274Z,101642.18
2018-09-03T22:27:54.754Z,101642.34
2018-09-03T22:30:23.425Z,101646.53
2018-09-03T22:32:52.254Z,101640.34
2018-09-03T22:35:20.938Z,101639.10
2018-09-03T22:37:49.444Z,101642.30
2018-09-03T22:40:18.214Z,101642.47
2018-09-03T22:42:46.853Z,101632.95
2018-09-03T22:45:15.516Z,101639.22
2018-09-03T22:47:44.836Z,101637.10
2018-09-03T22:50:13.402Z,101634.06
2018-09-03T22:52:42.032Z,101587.25
2018-09-03T22:55:10.598Z,101634.31
2018-09-03T22:57:39.412Z,101638.76
2018-09-03T23:00:08.000Z,101630.91
2018-09-03T23:02:40.939Z,101628.42
2018-09-03T23:05:09.466Z,101628.58
2018-09-03T23:07:38.456Z,101643.74
2018-09-03T23:10:07.554Z,101633.19
2018-09-03T23:12:36.367Z,101594.48
2018-09-03T23:15:05.186Z,101627.52
2018-09-03T23:17:34.170Z,101637.04
2018-09-03T23:20:02.646Z,101639.78
2018-09-03T23:22:31.434Z,101634.55
2018-09-03T23:24:59.902Z,101638.16
2018-09-03T23:27:28.673Z,101630.72
2018-09-03T23:29:57.226Z,101603.46
2018-09-03T23:32:25.883Z,101629.97
2018-09-03T23:34:54.774Z,101622.16
2018-09-03T23:37:23.290Z,101620.49
2018-09-03T23:39:52.052Z,101619.24
2018-09-03T23:42:20.601Z,101615.83
2018-09-03T23:44:49.704Z,101612.92
2018-09-03T23:47:18.318Z,101611.75
2018-09-03T23:49:46.992Z,101610.92
2018-09-03T23:52:15.691Z,101603.02
2018-09-03T23:54:44.189Z,101602.23
2018-09-03T23:57:13.114Z,101563.98
2018-09-03T23:59:41.680Z,101594.96
